createdAt,value
2018-02-24T00:00:41.296Z,-0.8
2018-02-24T00:01:41.273Z,-0.8
2018-02-24T00:02:41.267Z,-0.81
2018-02-24T00:03:41.272Z,-0.82
2018-02-24T00:04:41.437Z,-0.82
2018-02-24T00:05:41.273Z,-0.81
2018-02-24T00:06:41.282Z,-0.81
2018-02-24T00:07:41.283Z,-0.81
2018-02-24T00:08:41.442Z,-0.81
2018-02-24T00:09:41.453Z,-0.82
2018-02-24T00:10:41.449Z,-0.84
2018-02-24T00:11:41.468Z,-0.81
2018-02-24T00:12:41.454Z,-0.85
2018-02-24T00:13:41.448Z,-0.88
2018-02-24T00:14:41.558Z,-0.86
2018-02-24T00:15:41.455Z,-0.91
2018-02-24T00:16:41.473Z,-0.91
2018-02-24T00:17:41.455Z,-0.92
2018-02-24T00:18:41.467Z,-0.91
2018-02-24T00:19:41.466Z,-0.92
2018-02-24T00:20:41.635Z,-0.93
2018-02-24T00:21:41.312Z,-0.92
2018-02-24T00:22:41.310Z,-0.91
2018-02-24T00:23:41.320Z,-0.92
2018-02-24T00:24:41.336Z,-0.92
2018-02-24T00:25:41.327Z,-0.89
2018-02-24T00:26:41.512Z,-0.92
2018-02-24T00:27:41.501Z,-0.89
2018-02-24T00:28:41.340Z,-0.92
2018-02-24T00:29:41.343Z,-0.93
2018-02-24T00:30:41.497Z,-0.93
2018-02-24T00:31:41.541Z,-0.99
2018-02-24T00:32:41.513Z,-0.99
2018-02-24T00:33:41.526Z,-0.99
2018-02-24T00:34:41.532Z,-0.96
2018-02-24T00:35:41.523Z,-1.02
2018-02-24T00:36:41.846Z,-0.99
2018-02-24T00:37:41.527Z,-0.99
2018-02-24T00:38:41.373Z,-1.01
2018-02-24T00:39:41.549Z,-1.01
2018-02-24T00:40:41.388Z,-1.02
2018-02-24T00:41:41.421Z,-1.02
2018-02-24T00:42:41.400Z,-1.02
2018-02-24T00:43:41.403Z,-1.03
2018-02-24T00:44:41.409Z,-1.05
2018-02-24T00:45:41.421Z,-1.08
2018-02-24T00:46:41.436Z,-1.05
2018-02-24T00:47:41.417Z,-1.07
2018-02-24T00:48:41.420Z,-1.07
2018-02-24T00:49:41.429Z,-1.05
2018-02-24T00:50:41.425Z,-1.02
2018-02-24T00:51:41.427Z,-0.99
2018-02-24T00:52:41.429Z,-0.99
2018-02-24T00:53:41.440Z,-1.07
2018-02-24T00:54:41.452Z,-1.07
2018-02-24T00:55:41.443Z,-1.07
2018-02-24T00:56:41.453Z,-1.05
2018-02-24T00:57:41.450Z,-1.08
2018-02-24T00:58:41.455Z,-1.08
2018-02-24T00:59:41.443Z,-1.09
2018-02-24T01:00:41.450Z,-1.12
2018-02-24T01:01:41.457Z,-1.11
2018-02-24T01:02:41.450Z,-1.12
2018-02-24T01:03:41.458Z,-1.11
2018-02-24T01:04:41.466Z,-1.11
2018-02-24T01:05:41.469Z,-1.13
2018-02-24T01:06:41.478Z,-1.12
2018-02-24T01:07:41.484Z,-1.12
2018-02-24T01:08:41.480Z,-1.15
2018-02-24T01:09:41.498Z,-1.15
2018-02-24T01:10:41.480Z,-1.18
2018-02-24T01:11:41.546Z,-1.2
2018-02-24T01:12:41.493Z,-1.22
2018-02-24T01:13:41.490Z,-1.19
2018-02-24T01:14:41.500Z,-1.23
2018-02-24T01:15:41.666Z,-1.22
2018-02-24T01:16:41.656Z,-1.22
2018-02-24T01:17:41.672Z,-1.26
2018-02-24T01:18:41.702Z,-1.26
2018-02-24T01:19:41.677Z,-1.26
2018-02-24T01:20:41.722Z,-1.26
2018-02-24T01:21:41.532Z,-1.25
2018-02-24T01:22:41.699Z,-1.27
2018-02-24T01:23:41.705Z,-1.29
2018-02-24T01:24:41.699Z,-1.29
2018-02-24T01:25:41.719Z,-1.27
2018-02-24T01:26:41.711Z,-1.29
2018-02-24T01:27:41.565Z,-1.29
2018-02-24T01:28:41.559Z,-1.3
2018-02-24T01:29:41.750Z,-1.29
2018-02-24T01:30:41.592Z,-1.3
2018-02-24T01:31:41.731Z,-1.29
2018-02-24T01:32:41.572Z,-1.32
2018-02-24T01:33:41.576Z,-1.33
2018-02-24T01:34:41.574Z,-1.33
2018-02-24T01:35:41.964Z,-1.33
2018-02-24T01:36:41.589Z,-1.33
2018-02-24T01:37:41.582Z,-1.32
2018-02-24T01:38:41.588Z,-1.35
2018-02-24T01:39:41.580Z,-1.33
2018-02-24T01:40:41.895Z,-1.32
2018-02-24T01:41:41.592Z,-1.35
2018-02-24T01:42:41.595Z,-1.36
2018-02-24T01:43:41.604Z,-1.33
2018-02-24T01:44:41.612Z,-1.37
2018-02-24T01:45:41.634Z,-1.35
2018-02-24T01:46:41.646Z,-1.33
2018-02-24T01:47:41.774Z,-1.33
2018-02-24T01:48:41.773Z,-1.35
2018-02-24T01:49:41.781Z,-1.35
2018-02-24T01:50:41.817Z,-1.37
2018-02-24T01:51:41.630Z,-1.37
2018-02-24T01:52:41.631Z,-1.37
2018-02-24T01:53:41.629Z,-1.36
2018-02-24T01:54:41.638Z,-1.39
2018-02-24T01:55:41.670Z,-1.35
2018-02-24T01:56:41.645Z,-1.3
2018-02-24T01:57:41.662Z,-1.33
2018-02-24T01:58:41.660Z,-1.32
2018-02-24T01:59:41.650Z,-1.35
2018-02-24T02:00:41.664Z,-1.35
2018-02-24T02:01:42.031Z,-1.36
2018-02-24T02:02:41.674Z,-1.39
2018-02-24T02:03:41.669Z,-1.41
2018-02-24T02:04:41.675Z,-1.41
2018-02-24T02:05:41.666Z,-1.41
2018-02-24T02:06:41.716Z,-1.43
2018-02-24T02:07:41.690Z,-1.44
2018-02-24T02:08:41.682Z,-1.41
2018-02-24T02:09:41.695Z,-1.43
2018-02-24T02:10:41.697Z,-1.46
2018-02-24T02:11:41.724Z,-1.47
2018-02-24T02:12:41.696Z,-1.46
2018-02-24T02:13:41.708Z,-1.47
2018-02-24T02:14:41.705Z,-1.48
2018-02-24T02:15:41.711Z,-1.47
2018-02-24T02:16:41.762Z,-1.51
2018-02-24T02:17:41.724Z,-1.5
2018-02-24T02:18:41.723Z,-1.5
2018-02-24T02:19:41.720Z,-1.51
2018-02-24T02:20:41.727Z,-1.54
2018-02-24T02:21:41.725Z,-1.55
2018-02-24T02:22:41.726Z,-1.57
2018-02-24T02:23:41.748Z,-1.6
2018-02-24T02:24:41.736Z,-1.64
2018-02-24T02:25:41.740Z,-1.6
2018-02-24T02:26:41.895Z,-1.6
2018-02-24T02:27:41.926Z,-1.61
2018-02-24T02:28:41.901Z,-1.6
2018-02-24T02:29:41.736Z,-1.6
2018-02-24T02:30:41.911Z,-1.63
2018-02-24T02:31:41.905Z,-1.64
2018-02-24T02:32:41.912Z,-1.61
2018-02-24T02:33:41.915Z,-1.61
2018-02-24T02:34:41.940Z,-1.63
2018-02-24T02:35:41.921Z,-1.65
2018-02-24T02:36:41.771Z,-1.67
2018-02-24T02:37:41.775Z,-1.67
2018-02-24T02:38:41.951Z,-1.7
2018-02-24T02:39:41.931Z,-1.68
2018-02-24T02:40:41.775Z,-1.7
2018-02-24T02:41:41.787Z,-1.68
2018-02-24T02:42:41.813Z,-1.71
2018-02-24T02:43:41.779Z,-1.74
2018-02-24T02:44:41.799Z,-1.72
2018-02-24T02:45:41.808Z,-1.75
2018-02-24T02:46:41.798Z,-1.75
2018-02-24T02:47:41.805Z,-1.78
2018-02-24T02:48:41.813Z,-1.78
2018-02-24T02:49:41.800Z,-1.79
2018-02-24T02:50:41.827Z,-1.79
2018-02-24T02:51:41.806Z,-1.82
2018-02-24T02:52:41.812Z,-1.79
2018-02-24T02:53:41.831Z,-1.81
2018-02-24T02:54:41.812Z,-1.83
2018-02-24T02:55:41.820Z,-1.82
2018-02-24T02:56:41.984Z,-1.83
2018-02-24T02:57:41.998Z,-1.86
2018-02-24T02:58:42.007Z,-1.88
2018-02-24T02:59:41.821Z,-1.85
2018-02-24T03:00:41.995Z,-1.89
2018-02-24T03:01:41.989Z,-1.89
2018-02-24T03:02:41.827Z,-1.91
2018-02-24T03:03:41.831Z,-1.89
2018-02-24T03:04:41.834Z,-1.93
2018-02-24T03:05:41.843Z,-1.91
2018-02-24T03:06:41.830Z,-1.92
2018-02-24T03:07:41.841Z,-1.93
2018-02-24T03:08:41.860Z,-1.92
2018-02-24T03:09:41.869Z,-1.93
2018-02-24T03:10:41.849Z,-1.92
2018-02-24T03:11:41.863Z,-1.92
2018-02-24T03:12:41.861Z,-1.92
2018-02-24T03:13:42.221Z,-1.95
2018-02-24T03:14:41.862Z,-1.93
2018-02-24T03:15:41.871Z,-1.98
2018-02-24T03:16:41.867Z,-1.95
2018-02-24T03:17:41.873Z,-1.99
2018-02-24T03:18:41.900Z,-2
2018-02-24T03:19:41.873Z,-1.99
2018-02-24T03:20:41.881Z,-2
2018-02-24T03:21:41.890Z,-2.03
2018-02-24T03:22:41.890Z,-2.02
2018-02-24T03:23:41.881Z,-2.06
2018-02-24T03:24:41.894Z,-2.05
2018-02-24T03:25:41.892Z,-2.03
2018-02-24T03:26:41.898Z,-2.05
2018-02-24T03:27:41.896Z,-2.05
2018-02-24T03:28:41.891Z,-2.09
2018-02-24T03:29:41.905Z,-2.1
2018-02-24T03:30:41.914Z,-2.1
2018-02-24T03:31:41.922Z,-2.09
2018-02-24T03:32:41.901Z,-2.13
2018-02-24T03:33:41.912Z,-2.13
2018-02-24T03:34:41.917Z,-2.19
2018-02-24T03:35:41.921Z,-2.16
2018-02-24T03:36:41.929Z,-2.16
2018-02-24T03:37:41.936Z,-2.2
2018-02-24T03:38:42.097Z,-2.2
2018-02-24T03:39:42.087Z,-2.17
2018-02-24T03:40:42.094Z,-2.19
2018-02-24T03:41:42.102Z,-2.19
2018-02-24T03:42:42.107Z,-2.19
2018-02-24T03:43:42.133Z,-2.2
2018-02-24T03:44:41.986Z,-2.2
2018-02-24T03:45:42.117Z,-2.21
2018-02-24T03:46:42.125Z,-2.26
2018-02-24T03:47:42.120Z,-2.3
2018-02-24T03:48:42.138Z,-2.26
2018-02-24T03:49:41.986Z,-2.26
2018-02-24T03:50:42.138Z,-2.27
2018-02-24T03:51:42.149Z,-2.23
2018-02-24T03:52:42.143Z,-2.28
2018-02-24T03:53:42.144Z,-2.27
2018-02-24T03:54:42.142Z,-2.27
2018-02-24T03:55:42.157Z,-2.27
2018-02-24T03:56:42.164Z,-2.27
2018-02-24T03:57:42.147Z,-2.27
2018-02-24T03:58:42.159Z,-2.26
2018-02-24T03:59:42.004Z,-2.3
2018-02-24T04:00:42.165Z,-2.31
2018-02-24T04:01:42.009Z,-2.31
2018-02-24T04:02:42.159Z,-2.28
2018-02-24T04:03:42.014Z,-2.28
2018-02-24T04:04:42.166Z,-2.34
2018-02-24T04:05:42.178Z,-2.34
2018-02-24T04:06:42.165Z,-2.36
2018-02-24T04:07:42.173Z,-2.36
2018-02-24T04:08:42.195Z,-2.38
2018-02-24T04:09:42.031Z,-2.34
2018-02-24T04:10:42.210Z,-2.37
2018-02-24T04:11:42.196Z,-2.4
2018-02-24T04:12:42.198Z,-2.41
2018-02-24T04:13:42.228Z,-2.45
2018-02-24T04:14:42.036Z,-2.45
2018-02-24T04:15:42.048Z,-2.51
2018-02-24T04:16:42.043Z,-2.45
2018-02-24T04:17:42.056Z,-2.44
2018-02-24T04:18:42.075Z,-2.47
2018-02-24T04:19:42.062Z,-2.47
2018-02-24T04:20:42.074Z,-2.47
2018-02-24T04:21:42.071Z,-2.47
2018-02-24T04:22:42.081Z,-2.41
2018-02-24T04:23:42.231Z,-2.4
2018-02-24T04:24:42.073Z,-2.41
2018-02-24T04:25:42.064Z,-2.41
2018-02-24T04:26:42.071Z,-2.44
2018-02-24T04:27:42.066Z,-2.47
2018-02-24T04:28:42.224Z,-2.47
2018-02-24T04:29:42.097Z,-2.51
2018-02-24T04:30:42.075Z,-2.48
2018-02-24T04:31:42.079Z,-2.54
2018-02-24T04:32:42.080Z,-2.54
2018-02-24T04:33:42.087Z,-2.57
2018-02-24T04:34:42.103Z,-2.55
2018-02-24T04:35:42.089Z,-2.58
2018-02-24T04:36:42.092Z,-2.58
2018-02-24T04:37:42.099Z,-2.54
2018-02-24T04:38:42.101Z,-2.53
2018-02-24T04:39:42.131Z,-2.55
2018-02-24T04:40:42.143Z,-2.57
2018-02-24T04:41:42.105Z,-2.55
2018-02-24T04:42:42.111Z,-2.62
2018-02-24T04:43:42.117Z,-2.58
2018-02-24T04:44:42.122Z,-2.58
2018-02-24T04:45:42.116Z,-2.6
2018-02-24T04:46:42.172Z,-2.55
2018-02-24T04:47:42.118Z,-2.6
2018-02-24T04:48:42.127Z,-2.6
2018-02-24T04:49:42.400Z,-2.62
2018-02-24T04:50:42.296Z,-2.62
2018-02-24T04:51:42.277Z,-2.65
2018-02-24T04:52:42.285Z,-2.66
2018-02-24T04:53:42.318Z,-2.62
2018-02-24T04:54:42.309Z,-2.69
2018-02-24T04:55:42.288Z,-2.69
2018-02-24T04:56:42.282Z,-2.71
2018-02-24T04:57:42.137Z,-2.71
2018-02-24T04:58:42.140Z,-2.75
2018-02-24T04:59:42.164Z,-2.76
2018-02-24T05:00:42.367Z,-2.74
2018-02-24T05:01:42.310Z,-2.75
2018-02-24T05:02:42.530Z,-2.78
2018-02-24T05:03:42.354Z,-2.79
2018-02-24T05:04:42.325Z,-2.81
2018-02-24T05:05:42.325Z,-2.79
2018-02-24T05:06:42.325Z,-2.83
2018-02-24T05:07:42.347Z,-2.81
2018-02-24T05:08:42.408Z,-2.85
2018-02-24T05:09:42.176Z,-2.83
2018-02-24T05:10:42.175Z,-2.83
2018-02-24T05:11:42.232Z,-2.85
2018-02-24T05:12:42.201Z,-2.88
2018-02-24T05:13:42.190Z,-2.85
2018-02-24T05:14:42.186Z,-2.86
2018-02-24T05:15:42.196Z,-2.89
2018-02-24T05:16:42.196Z,-2.89
2018-02-24T05:17:42.452Z,-2.92
2018-02-24T05:18:42.211Z,-2.86
2018-02-24T05:19:42.205Z,-2.83
2018-02-24T05:20:42.226Z,-2.94
2018-02-24T05:21:42.208Z,-2.94
2018-02-24T05:22:42.248Z,-2.96
2018-02-24T05:23:42.220Z,-2.94
2018-02-24T05:24:42.224Z,-2.97
2018-02-24T05:25:42.244Z,-2.97
2018-02-24T05:26:42.227Z,-2.96
2018-02-24T05:27:42.239Z,-2.96
2018-02-24T05:28:42.236Z,-2.96
2018-02-24T05:29:42.232Z,-2.93
2018-02-24T05:30:42.276Z,-2.96
2018-02-24T05:31:42.397Z,-2.96
2018-02-24T05:32:42.510Z,-2.93
2018-02-24T05:33:42.254Z,-2.96
2018-02-24T05:34:42.251Z,-2.96
2018-02-24T05:35:42.242Z,-2.99
2018-02-24T05:36:42.252Z,-2.99
2018-02-24T05:37:42.280Z,-3.03
2018-02-24T05:38:42.247Z,-3.04
2018-02-24T05:39:42.288Z,-3.02
2018-02-24T05:40:42.256Z,-3.04
2018-02-24T05:41:42.256Z,-3.04
2018-02-24T05:42:42.263Z,-3.02
2018-02-24T05:43:42.270Z,-3.03
2018-02-24T05:44:42.272Z,-3.03
2018-02-24T05:45:42.287Z,-3.06
2018-02-24T05:46:42.271Z,-3.1
2018-02-24T05:47:42.275Z,-3.06
2018-02-24T05:48:42.298Z,-3.07
2018-02-24T05:49:42.272Z,-3.07
2018-02-24T05:50:42.280Z,-3.07
2018-02-24T05:51:42.301Z,-3.11
2018-02-24T05:52:42.294Z,-3.07
2018-02-24T05:53:42.312Z,-3.07
2018-02-24T05:54:42.317Z,-3.1
2018-02-24T05:55:42.313Z,-3.11
2018-02-24T05:56:42.330Z,-3.13
2018-02-24T05:57:42.309Z,-3.11
2018-02-24T05:58:42.339Z,-3.11
2018-02-24T05:59:42.332Z,-3.11
2018-02-24T06:00:42.323Z,-3.09
2018-02-24T06:01:42.504Z,-3.13
2018-02-24T06:02:42.508Z,-3.11
2018-02-24T06:03:42.500Z,-3.11
2018-02-24T06:04:42.505Z,-3.14
2018-02-24T06:05:42.500Z,-3.13
2018-02-24T06:06:42.533Z,-3.17
2018-02-24T06:07:42.526Z,-3.16
2018-02-24T06:08:42.530Z,-3.14
2018-02-24T06:09:42.545Z,-3.13
2018-02-24T06:10:42.538Z,-3.13
2018-02-24T06:11:42.537Z,-3.11
2018-02-24T06:12:42.541Z,-3.14
2018-02-24T06:13:42.545Z,-3.16
2018-02-24T06:14:42.590Z,-3.19
2018-02-24T06:15:42.540Z,-3.17
2018-02-24T06:16:42.613Z,-3.17
2018-02-24T06:17:42.601Z,-3.14
2018-02-24T06:18:42.550Z,-3.19
2018-02-24T06:19:42.580Z,-3.2
2018-02-24T06:20:42.554Z,-3.2
2018-02-24T06:21:42.413Z,-3.2
2018-02-24T06:22:42.559Z,-3.21
2018-02-24T06:23:42.561Z,-3.25
2018-02-24T06:24:42.573Z,-3.25
2018-02-24T06:25:42.571Z,-3.23
2018-02-24T06:26:42.585Z,-3.27
2018-02-24T06:27:42.632Z,-3.24
2018-02-24T06:28:42.563Z,-3.25
2018-02-24T06:29:42.425Z,-3.25
2018-02-24T06:30:42.427Z,-3.27
2018-02-24T06:31:42.588Z,-3.28
2018-02-24T06:32:42.590Z,-3.27
2018-02-24T06:33:42.595Z,-3.25
2018-02-24T06:34:42.591Z,-3.25
2018-02-24T06:35:42.613Z,-3.25
2018-02-24T06:36:42.606Z,-3.3
2018-02-24T06:37:42.456Z,-3.27
2018-02-24T06:38:42.462Z,-3.25
2018-02-24T06:39:42.640Z,-3.25
2018-02-24T06:40:42.475Z,-3.25
2018-02-24T06:41:42.489Z,-3.25
2018-02-24T06:42:42.496Z,-3.27
2018-02-24T06:43:42.487Z,-3.24
2018-02-24T06:44:42.512Z,-3.28
2018-02-24T06:45:42.542Z,-3.25
2018-02-24T06:46:42.550Z,-3.24
2018-02-24T06:47:42.516Z,-3.25
2018-02-24T06:48:42.638Z,-3.23
2018-02-24T06:49:42.541Z,-3.24
2018-02-24T06:50:42.528Z,-3.23
2018-02-24T06:51:42.527Z,-3.21
2018-02-24T06:52:42.557Z,-3.21
2018-02-24T06:53:42.539Z,-3.23
2018-02-24T06:54:42.746Z,-3.25
2018-02-24T06:55:42.697Z,-3.25
2018-02-24T06:56:42.545Z,-3.24
2018-02-24T06:57:42.552Z,-3.24
2018-02-24T06:58:42.554Z,-3.21
2018-02-24T06:59:42.555Z,-3.21
2018-02-24T07:00:42.692Z,-3.2
2018-02-24T07:01:42.556Z,-3.14
2018-02-24T07:02:42.575Z,-3.16
2018-02-24T07:03:42.577Z,-3.14
2018-02-24T07:04:42.602Z,-3.16
2018-02-24T07:05:42.577Z,-3.14
2018-02-24T07:06:42.586Z,-3.14
2018-02-24T07:07:42.577Z,-3.13
2018-02-24T07:08:42.596Z,-3.1
2018-02-24T07:09:42.602Z,-3.11
2018-02-24T07:10:42.612Z,-3.1
2018-02-24T07:11:42.592Z,-3.06
2018-02-24T07:12:42.604Z,-3.04
2018-02-24T07:13:42.828Z,-3.04
2018-02-24T07:14:42.761Z,-3.03
2018-02-24T07:15:42.766Z,-3.03
2018-02-24T07:16:42.781Z,-3.02
2018-02-24T07:17:42.769Z,-2.99
2018-02-24T07:18:42.779Z,-2.96
2018-02-24T07:19:42.823Z,-2.99
2018-02-24T07:20:42.784Z,-2.99
2018-02-24T07:21:42.798Z,-2.93
2018-02-24T07:22:42.820Z,-2.94
2018-02-24T07:23:42.801Z,-2.89
2018-02-24T07:24:42.666Z,-2.88
2018-02-24T07:25:42.644Z,-2.88
2018-02-24T07:26:42.865Z,-2.83
2018-02-24T07:27:42.815Z,-2.83
2018-02-24T07:28:42.656Z,-2.83
2018-02-24T07:29:42.815Z,-2.82
2018-02-24T07:30:42.659Z,-2.83
2018-02-24T07:31:42.676Z,-2.85
2018-02-24T07:32:42.683Z,-2.82
2018-02-24T07:33:42.695Z,-2.75
2018-02-24T07:34:42.669Z,-2.78
2018-02-24T07:35:42.680Z,-2.69
2018-02-24T07:36:42.673Z,-2.66
2018-02-24T07:37:42.734Z,-2.68
2018-02-24T07:38:42.686Z,-2.66
2018-02-24T07:39:42.685Z,-2.65
2018-02-24T07:40:42.681Z,-2.62
2018-02-24T07:41:42.680Z,-2.62
2018-02-24T07:42:42.693Z,-2.57
2018-02-24T07:43:42.682Z,-2.54
2018-02-24T07:44:42.854Z,-2.5
2018-02-24T07:45:42.697Z,-2.54
2018-02-24T07:46:42.865Z,-2.54
2018-02-24T07:47:42.862Z,-2.48
2018-02-24T07:48:42.707Z,-2.43
2018-02-24T07:49:42.710Z,-2.44
2018-02-24T07:50:42.714Z,-2.43
2018-02-24T07:51:42.728Z,-2.44
2018-02-24T07:52:42.728Z,-2.43
2018-02-24T07:53:42.720Z,-2.41
2018-02-24T07:54:42.728Z,-2.4
2018-02-24T07:55:42.995Z,-2.4
2018-02-24T07:56:42.727Z,-2.37
2018-02-24T07:57:42.734Z,-2.36
2018-02-24T07:58:42.734Z,-2.38
2018-02-24T07:59:42.751Z,-2.34
2018-02-24T08:00:42.768Z,-2.33
2018-02-24T08:01:42.747Z,-2.31
2018-02-24T08:02:42.811Z,-2.3
2018-02-24T08:03:42.757Z,-2.23
2018-02-24T08:04:42.855Z,-2.17
2018-02-24T08:05:42.800Z,-2.2
2018-02-24T08:06:42.779Z,-2.19
2018-02-24T08:07:42.791Z,-2.17
2018-02-24T08:08:42.794Z,-2.14
2018-02-24T08:09:42.784Z,-2.1
2018-02-24T08:10:42.798Z,-2.11
2018-02-24T08:11:42.808Z,-2.13
2018-02-24T08:12:42.819Z,-2.13
2018-02-24T08:13:42.825Z,-2.07
2018-02-24T08:14:42.814Z,-2.07
2018-02-24T08:15:42.840Z,-2.03
2018-02-24T08:16:42.822Z,-2.02
2018-02-24T08:17:42.975Z,-1.96
2018-02-24T08:18:42.834Z,-1.95
2018-02-24T08:19:42.841Z,-1.92
2018-02-24T08:20:42.837Z,-1.88
2018-02-24T08:21:42.840Z,-1.88
2018-02-24T08:22:42.836Z,-1.93
2018-02-24T08:23:42.849Z,-1.93
2018-02-24T08:24:42.847Z,-1.89
2018-02-24T08:25:42.994Z,-1.89
2018-02-24T08:26:42.862Z,-1.88
2018-02-24T08:27:43.010Z,-1.85
2018-02-24T08:28:43.011Z,-1.85
2018-02-24T08:29:43.012Z,-1.86
2018-02-24T08:30:43.069Z,-1.82
2018-02-24T08:31:43.010Z,-1.82
2018-02-24T08:32:43.038Z,-1.78
2018-02-24T08:33:43.020Z,-1.78
2018-02-24T08:34:43.032Z,-1.76
2018-02-24T08:35:43.047Z,-1.76
2018-02-24T08:36:43.045Z,-1.72
2018-02-24T08:37:43.097Z,-1.68
2018-02-24T08:38:43.095Z,-1.65
2018-02-24T08:39:43.104Z,-1.65
2018-02-24T08:40:43.089Z,-1.65
2018-02-24T08:41:43.046Z,-1.63
2018-02-24T08:42:43.084Z,-1.61
2018-02-24T08:43:42.891Z,-1.6
2018-02-24T08:44:42.891Z,-1.55
2018-02-24T08:45:42.895Z,-1.51
2018-02-24T08:46:42.909Z,-1.51
2018-02-24T08:47:42.909Z,-1.55
2018-02-24T08:48:42.912Z,-1.51
2018-02-24T08:49:43.085Z,-1.48
2018-02-24T08:50:42.956Z,-1.44
2018-02-24T08:51:42.952Z,-1.39
2018-02-24T08:52:42.957Z,-1.36
2018-02-24T08:53:42.929Z,-1.35
2018-02-24T08:54:42.928Z,-1.32
2018-02-24T08:55:42.929Z,-1.27
2018-02-24T08:56:42.950Z,-1.23
2018-02-24T08:57:42.935Z,-1.19
2018-02-24T08:58:42.941Z,-1.15
2018-02-24T08:59:42.954Z,-1.13
2018-02-24T09:00:42.942Z,-1.18
2018-02-24T09:01:42.975Z,-1.13
2018-02-24T09:02:42.959Z,-1.11
2018-02-24T09:03:42.956Z,-1.08
2018-02-24T09:04:42.948Z,-1.07
2018-02-24T09:05:42.947Z,-1.01
2018-02-24T09:06:43.005Z,-0.96
2018-02-24T09:07:42.947Z,-0.95
2018-02-24T09:08:42.974Z,-0.85
2018-02-24T09:09:42.942Z,-0.81
2018-02-24T09:10:42.966Z,-0.84
2018-02-24T09:11:42.984Z,-0.82
2018-02-24T09:12:42.955Z,-0.78
2018-02-24T09:13:42.953Z,-0.77
2018-02-24T09:14:42.955Z,-0.77
2018-02-24T09:15:43.056Z,-0.71
2018-02-24T09:16:43.030Z,-0.71
2018-02-24T09:17:43.627Z,-0.73
2018-02-24T09:18:43.019Z,-0.64
2018-02-24T09:19:43.193Z,-0.63
2018-02-24T09:20:42.998Z,-0.56
2018-02-24T09:21:42.986Z,-0.53
2018-02-24T09:22:42.980Z,-0.56
2018-02-24T09:23:42.965Z,-0.5
2018-02-24T09:24:42.973Z,-0.47
2018-02-24T09:25:42.995Z,-0.42
2018-02-24T09:26:43.006Z,-0.42
2018-02-24T09:27:42.996Z,-0.37
2018-02-24T09:28:42.989Z,-0.37
2018-02-24T09:29:43.038Z,-0.36
2018-02-24T09:30:42.995Z,-0.35
2018-02-24T09:31:43.015Z,-0.26
2018-02-24T09:32:43.015Z,-0.23
2018-02-24T09:33:43.048Z,-0.23
2018-02-24T09:34:43.011Z,-0.29
2018-02-24T09:35:43.016Z,-0.28
2018-02-24T09:36:43.193Z,-0.23
2018-02-24T09:37:43.193Z,-0.22
2018-02-24T09:38:43.296Z,-0.21
2018-02-24T09:39:43.206Z,-0.17
2018-02-24T09:40:43.211Z,-0.17
2018-02-24T09:41:43.191Z,-0.09
2018-02-24T09:42:43.192Z,-0.08
2018-02-24T09:43:43.226Z,-0.05
2018-02-24T09:44:43.191Z,0.01
2018-02-24T09:45:43.205Z,0.1
2018-02-24T09:46:43.070Z,0.13
2018-02-24T09:47:43.210Z,0.13
2018-02-24T09:48:43.079Z,0.13
2018-02-24T09:49:43.209Z,0.18
2018-02-24T09:50:43.055Z,0.2
2018-02-24T09:51:43.216Z,0.22
2018-02-24T09:52:43.215Z,0.27
2018-02-24T09:53:43.053Z,0.29
2018-02-24T09:54:43.223Z,0.34
2018-02-24T09:55:43.243Z,0.34
2018-02-24T09:56:43.224Z,0.38
2018-02-24T09:57:43.226Z,0.48
2018-02-24T09:58:43.395Z,0.51
2018-02-24T09:59:43.227Z,0.54
2018-02-24T10:00:43.097Z,0.58
2018-02-24T10:01:43.246Z,0.6
2018-02-24T10:02:43.095Z,0.67
2018-02-24T10:03:43.092Z,0.69
2018-02-24T10:04:43.232Z,0.69
2018-02-24T10:05:43.246Z,0.75
2018-02-24T10:06:43.069Z,0.68
2018-02-24T10:07:43.077Z,0.75
2018-02-24T10:08:43.175Z,0.74
2018-02-24T10:09:43.077Z,0.76
2018-02-24T10:10:43.112Z,0.81
2018-02-24T10:11:43.090Z,0.82
2018-02-24T10:12:43.111Z,0.82
2018-02-24T10:13:43.097Z,0.81
2018-02-24T10:14:43.109Z,0.79
2018-02-24T10:15:43.130Z,0.89
2018-02-24T10:16:43.119Z,0.95
2018-02-24T10:17:43.131Z,1
2018-02-24T10:18:43.121Z,1.09
2018-02-24T10:19:43.134Z,1.09
2018-02-24T10:20:43.178Z,1.09
2018-02-24T10:21:43.141Z,1.09
2018-02-24T10:22:43.137Z,1.15
2018-02-24T10:23:43.154Z,1.15
2018-02-24T10:24:43.139Z,1.22
2018-02-24T10:25:43.139Z,1.3
2018-02-24T10:26:43.146Z,1.27
2018-02-24T10:27:43.151Z,1.3
2018-02-24T10:28:43.156Z,1.26
2018-02-24T10:29:43.153Z,1.27
2018-02-24T10:30:43.174Z,1.33
2018-02-24T10:31:43.166Z,1.38
2018-02-24T10:32:43.168Z,1.47
2018-02-24T10:33:43.167Z,1.5
2018-02-24T10:34:43.172Z,1.51
2018-02-24T10:35:43.169Z,1.53
2018-02-24T10:36:43.167Z,1.55
2018-02-24T10:37:43.190Z,1.48
2018-02-24T10:38:43.184Z,1.55
2018-02-24T10:39:43.187Z,1.66
2018-02-24T10:40:43.177Z,1.75
2018-02-24T10:41:43.199Z,1.75
2018-02-24T10:42:43.193Z,1.75
2018-02-24T10:43:43.198Z,1.82
2018-02-24T10:44:43.356Z,1.86
2018-02-24T10:45:43.203Z,1.87
2018-02-24T10:46:43.211Z,1.92
2018-02-24T10:47:43.375Z,1.97
2018-02-24T10:48:43.382Z,2.04
2018-02-24T10:49:43.384Z,2.04
2018-02-24T10:50:44.294Z,2.07
2018-02-24T10:51:43.249Z,2.11
2018-02-24T10:52:43.428Z,2.14
2018-02-24T10:53:43.231Z,2.2
2018-02-24T10:54:43.409Z,2.2
2018-02-24T10:55:43.247Z,2.14
2018-02-24T10:56:43.260Z,2.21
2018-02-24T10:57:43.494Z,2.26
2018-02-24T10:58:43.249Z,2.3
2018-02-24T10:59:43.409Z,2.37
2018-02-24T11:00:43.273Z,2.4
2018-02-24T11:01:43.268Z,2.37
2018-02-24T11:02:43.592Z,2.34
2018-02-24T11:03:43.434Z,2.4
2018-02-24T11:04:44.569Z,2.41
2018-02-24T11:05:43.326Z,2.38
2018-02-24T11:06:43.291Z,2.47
2018-02-24T11:07:43.290Z,2.52
2018-02-24T11:08:43.579Z,2.61
2018-02-24T11:09:43.451Z,2.58
2018-02-24T11:10:43.301Z,2.61
2018-02-24T11:11:43.472Z,2.58
2018-02-24T11:12:44.996Z,2.64
2018-02-24T11:13:43.333Z,2.69
2018-02-24T11:14:43.483Z,2.73
2018-02-24T11:15:43.328Z,2.79
2018-02-24T11:16:43.331Z,2.84
2018-02-24T11:17:43.539Z,2.9
2018-02-24T11:18:43.344Z,2.99
2018-02-24T11:19:43.763Z,3.04
2018-02-24T11:20:43.350Z,3.03
2018-02-24T11:21:43.354Z,3.08
2018-02-24T11:22:43.354Z,3.07
2018-02-24T11:23:43.352Z,3.1
2018-02-24T11:24:43.384Z,3.06
2018-02-24T11:25:43.355Z,3.12
2018-02-24T11:26:43.361Z,3.12
2018-02-24T11:27:43.472Z,3.2
2018-02-24T11:28:43.362Z,3.21
2018-02-24T11:29:43.382Z,3.24
2018-02-24T11:30:43.366Z,3.25
2018-02-24T11:31:43.365Z,3.28
2018-02-24T11:32:43.391Z,3.37
2018-02-24T11:33:43.399Z,3.28
2018-02-24T11:34:43.366Z,3.31
2018-02-24T11:35:43.374Z,3.35
2018-02-24T11:36:43.393Z,3.34
2018-02-24T11:37:43.391Z,3.42
2018-02-24T11:38:43.395Z,3.49
2018-02-24T11:39:43.388Z,3.52
2018-02-24T11:40:43.389Z,3.49
2018-02-24T11:41:43.401Z,3.37
2018-02-24T11:42:43.393Z,3.38
2018-02-24T11:43:43.390Z,3.34
2018-02-24T11:44:43.415Z,3.38
2018-02-24T11:45:43.416Z,3.42
2018-02-24T11:46:43.416Z,3.49
2018-02-24T11:47:43.450Z,3.58
2018-02-24T11:48:43.575Z,3.52
2018-02-24T11:49:43.413Z,3.52
2018-02-24T11:50:43.420Z,3.54
2018-02-24T11:51:43.426Z,3.51
2018-02-24T11:52:43.461Z,3.61
2018-02-24T11:53:43.430Z,3.62
2018-02-24T11:54:43.443Z,3.7
2018-02-24T11:55:43.437Z,3.77
2018-02-24T11:56:43.632Z,3.82
2018-02-24T11:57:43.484Z,3.9
2018-02-24T11:58:43.452Z,3.93
2018-02-24T11:59:43.459Z,3.98
2018-02-24T12:00:43.452Z,4.02
2018-02-24T12:01:43.622Z,4.01
2018-02-24T12:02:43.634Z,4
2018-02-24T12:03:43.618Z,3.94
2018-02-24T12:04:43.658Z,3.96
2018-02-24T12:05:43.469Z,3.98
2018-02-24T12:06:43.635Z,3.94
2018-02-24T12:07:43.621Z,3.87
2018-02-24T12:08:43.474Z,3.94
2018-02-24T12:09:43.670Z,3.94
2018-02-24T12:10:43.494Z,3.96
2018-02-24T12:11:43.468Z,3.94
2018-02-24T12:12:43.469Z,3.96
2018-02-24T12:13:43.604Z,4.05
2018-02-24T12:14:43.501Z,4.07
2018-02-24T12:15:43.653Z,4.11
2018-02-24T12:16:43.484Z,4.1
2018-02-24T12:17:43.636Z,4.12
2018-02-24T12:18:43.473Z,4.26
2018-02-24T12:19:43.645Z,4.33
2018-02-24T12:20:43.510Z,4.4
2018-02-24T12:21:43.487Z,4.39
2018-02-24T12:22:43.502Z,4.46
2018-02-24T12:23:43.498Z,4.43
2018-02-24T12:24:43.672Z,4.49
2018-02-24T12:25:43.690Z,4.53
2018-02-24T12:26:43.508Z,4.56
2018-02-24T12:27:43.511Z,4.63
2018-02-24T12:28:43.688Z,4.59
2018-02-24T12:29:43.533Z,4.51
2018-02-24T12:30:43.559Z,4.56
2018-02-24T12:31:43.536Z,4.59
2018-02-24T12:32:43.554Z,4.6
2018-02-24T12:33:43.551Z,4.62
2018-02-24T12:34:43.705Z,4.66
2018-02-24T12:35:43.754Z,4.72
2018-02-24T12:36:43.559Z,4.65
2018-02-24T12:37:43.565Z,4.51
2018-02-24T12:38:43.559Z,4.57
2018-02-24T12:39:43.581Z,4.67
2018-02-24T12:40:43.591Z,4.63
2018-02-24T12:41:43.738Z,4.7
2018-02-24T12:42:43.561Z,4.59
2018-02-24T12:43:43.575Z,4.65
2018-02-24T12:44:43.570Z,4.69
2018-02-24T12:45:43.946Z,4.72
2018-02-24T12:46:43.902Z,4.76
2018-02-24T12:47:43.585Z,4.81
2018-02-24T12:48:43.584Z,4.87
2018-02-24T12:49:43.586Z,4.86
2018-02-24T12:50:43.887Z,4.94
2018-02-24T12:51:43.604Z,4.95
2018-02-24T12:52:43.608Z,5.01
2018-02-24T12:53:43.613Z,5.04
2018-02-24T12:54:43.608Z,5.01
2018-02-24T12:55:44.153Z,5.05
2018-02-24T12:56:43.622Z,5.05
2018-02-24T12:57:43.805Z,5.05
2018-02-24T12:58:43.632Z,5.05
2018-02-24T12:59:43.660Z,5.14
2018-02-24T13:00:43.796Z,5.15
2018-02-24T13:01:43.657Z,5.19